KALBKPBG

Guest
Details From KALB - ALBANY INTL
To KPBG - PLATTSBURGH INTL
Flight Number -
Tags generated
Created
Modified
Stats Distance 115 nm / 213 km
Max Altitude 7,400 ft / 2,256 m
Waypoints 3
Social Downloads 0
Likes 0
Share VATSIM

Download

Looking for another format? Having issues loading an existing format? Contact us
Advertisement - Login to hide

Notes

Basic altitude profile: - Ascent Rate: 2000ft/min - Ascent Speed: 130kts - Cruise Altitude: 12000ft - Cruise Speed: 180kts - Descent Rate: 1500ft/min - Descent Speed: 160kts Options: - Use NATs: yes - Use PACOTS: yes - Use low airways: yes - Use high airways: yes

Route

KALB KEMPE KPBG

ID Type Via Altitude Latitude Longitude Leg Dist Tot Dist Heading (true) Name
O KALB APT - 0 ft / 0 m 42.74936˚ -73.80173˚ - 0 nm - ALBANY INTL
KEMPE FIX - 7,400 ft / 2,256 m 44.07634˚ -73.56354˚ 80 nm 80 nm 7° / 8° -
O KPBG APT - 0 ft / 0 m 44.65094˚ -73.46812˚ 34 nm 115 nm 7° / 7° PLATTSBURGH INTL

Altitude Profile

Advertisement - Login to hide

KALB

Details ICAO KALB (ALB)
Name ALBANY INTL
Region United States
Timezone America/New_York (UTC-5.0)
Stats Elevation 285 ft / 87 m (AMSL)
Location 42.749357° -73.801728°
Runways 2
Magnetic Variation 13.510° W

METAR

KALB 110351Z COR 18007KT 10SM FEW050 OVC090 M01/M06 A2991 RMK AO2 SLP131 T10061061

Decode

TAF

KALB 102321Z 1100/1124 20006KT P6SM SCT050 BKN120 FM111400 28011KT P6SM BKN050

Decode

Departure Runways

ID Width Length Bearing (true) Bearing (mag) Surface Threshold Offset Overrun Length
01 150 ft / 46 m 8,509 ft / 2,593 m 358.17° 11.68° Asphalt 151 ft / 46 m 200 ft / 61 m
10 150 ft / 46 m 7,180 ft / 2,189 m 88.01° 101.52° Asphalt 249 ft / 76 m 0 ft / 0 m
19 150 ft / 46 m 8,509 ft / 2,593 m 178.17° 191.68° Asphalt 151 ft / 46 m 200 ft / 61 m
28 150 ft / 46 m 7,180 ft / 2,189 m 268.03° 281.54° Asphalt 200 ft / 61 m 0 ft / 0 m

KPBG

Details ICAO KPBG (PBG)
Name PLATTSBURGH INTL
Region United States
Timezone America/New_York (UTC-5.0)
Stats Elevation 233 ft / 71 m (AMSL)
Location 44.650937° -73.468116°
Runways 1
Magnetic Variation 14.210° W

METAR

KPBG 110353Z AUTO 17005KT 10SM BKN048 OVC100 M02/M06 A2982 RMK AO2 SLP103 T10171061 TSNO

Decode

TAF

KPBG 102324Z 1100/1124 19005KT P6SM BKN090 FM110100 20007KT P6SM VCSH BKN070 FM110600 28007KT P6SM BKN050 FM111500 33009KT P6SM SCT100

Decode

Destination Runways

ID Width Length Bearing (true) Bearing (mag) Surface Threshold Offset Overrun Length
17 200 ft / 61 m 11,763 ft / 3,585 m 157.54° 171.75° Concrete 0 ft / 0 m 1,001 ft / 305 m
35 200 ft / 61 m 11,763 ft / 3,585 m 337.55° 351.76° Concrete 0 ft / 0 m 1,001 ft / 305 m

Approach Navaids

Runway Type Ident Frequency Range Bearing (true) Bearing (mag) Slope Elevation
35 Localiser IFQV 109.70 MHz 18 nm / 33 km 337.54° 351.75° - 234 ft / 71 m (AMSL)
35 Glidescope IFQV 109.70 MHz 10 nm / 19 km 337.54° 351.75° 3.00° 234 ft / 71 m (AMSL)
35 DME IFQV 109.70 MHz 18 nm / 33 km - - - 234 ft / 71 m (AMSL)

Popular Alternatives